createdAt,value
2022-12-03T00:01:24.234Z,20.25
2022-12-03T00:03:55.029Z,20.92
2022-12-03T00:06:23.029Z,19.67
2022-12-03T00:08:51.353Z,18.10
2022-12-03T00:11:19.711Z,19.73
2022-12-03T00:13:48.370Z,17.23
2022-12-03T00:16:16.673Z,18.90
2022-12-03T00:18:45.026Z,16.83
2022-12-03T00:21:14.894Z,15.73
2022-12-03T00:23:43.266Z,16.50
2022-12-03T00:26:11.287Z,16.80
2022-12-03T00:28:39.448Z,17.17
2022-12-03T00:31:09.298Z,16.02
2022-12-03T00:33:37.677Z,15.63
2022-12-03T00:36:06.228Z,16.10
2022-12-03T00:38:35.606Z,14.77
2022-12-03T00:41:04.099Z,15.18
2022-12-03T00:43:32.434Z,14.52
2022-12-03T00:46:00.842Z,15.13
2022-12-03T00:48:29.297Z,14.75
2022-12-03T00:50:58.393Z,14.55
2022-12-03T00:53:26.318Z,13.43
2022-12-03T00:55:56.282Z,15.43
2022-12-03T00:58:24.583Z,14.85
2022-12-03T01:00:52.933Z,13.93
2022-12-03T01:03:21.296Z,14.55
2022-12-03T01:05:49.971Z,14.88
2022-12-03T01:08:18.233Z,15.35
2022-12-03T01:10:46.607Z,16.55
2022-12-03T01:13:16.448Z,14.10
2022-12-03T01:15:44.787Z,14.18
2022-12-03T01:18:13.078Z,15.18
2022-12-03T01:20:41.480Z,13.90
2022-12-03T01:23:09.379Z,15.40
2022-12-03T01:25:37.645Z,14.25
2022-12-03T01:28:05.793Z,13.90
2022-12-03T01:30:55.867Z,12.85
2022-12-03T01:33:22.858Z,13.13
2022-12-03T01:35:51.179Z,12.65
2022-12-03T01:38:19.617Z,12.75
2022-12-03T01:40:50.017Z,10.43
2022-12-03T01:43:18.254Z,10.27
2022-12-03T01:45:48.065Z,12.00
2022-12-03T01:48:19.430Z,10.70
2022-12-03T01:50:47.850Z,10.82
2022-12-03T01:53:18.414Z,10.60
2022-12-03T01:55:48.989Z,10.80
2022-12-03T01:58:18.120Z,10.32
2022-12-03T02:00:47.959Z,10.43
2022-12-03T02:03:18.248Z,10.07
2022-12-03T02:05:46.741Z,10.20
2022-12-03T02:08:31.359Z,10.40
2022-12-03T02:11:00.342Z,11.85
2022-12-03T02:13:28.823Z,11.07
2022-12-03T02:15:59.615Z,10.65
2022-12-03T02:18:27.688Z,11.15
2022-12-03T02:21:02.704Z,11.32
2022-12-03T02:23:34.921Z,12.25
2022-12-03T02:26:05.097Z,11.82
2022-12-03T02:28:33.449Z,12.75
2022-12-03T02:31:02.029Z,13.88
2022-12-03T02:33:30.382Z,12.95
2022-12-03T02:36:03.295Z,13.27
2022-12-03T02:38:33.634Z,15.35
2022-12-03T02:41:33.974Z,16.63
2022-12-03T02:44:02.380Z,16.38
2022-12-03T02:46:30.996Z,15.93
2022-12-03T02:48:59.503Z,16.50
2022-12-03T02:51:28.086Z,17.23
2022-12-03T02:53:56.798Z,16.42
2022-12-03T02:56:28.410Z,17.55
2022-12-03T02:58:58.670Z,18.23
2022-12-03T03:01:27.138Z,17.27
2022-12-03T03:03:55.562Z,17.02
2022-12-03T03:06:23.986Z,16.83
2022-12-03T03:08:52.240Z,17.38
2022-12-03T03:11:20.812Z,17.08
2022-12-03T03:13:50.508Z,17.00
2022-12-03T03:16:18.787Z,17.40
2022-12-03T03:18:46.844Z,16.83
2022-12-03T03:21:15.045Z,15.20
2022-12-03T03:23:43.370Z,15.95
2022-12-03T03:26:13.149Z,16.42
2022-12-03T03:28:43.752Z,18.27
2022-12-03T03:31:14.266Z,17.00
2022-12-03T03:33:44.096Z,16.13
2022-12-03T03:36:12.741Z,17.02
2022-12-03T03:38:41.302Z,16.88
2022-12-03T03:41:10.574Z,15.82
2022-12-03T03:43:39.846Z,16.30
2022-12-03T03:46:08.565Z,17.02
2022-12-03T03:48:38.414Z,16.48
2022-12-03T03:51:09.789Z,16.85
2022-12-03T03:53:38.397Z,16.92
2022-12-03T03:56:07.104Z,16.55
2022-12-03T03:58:35.498Z,16.83
2022-12-03T04:01:04.075Z,17.83
2022-12-03T04:03:32.592Z,16.92
2022-12-03T04:06:02.346Z,16.88
2022-12-03T04:08:30.663Z,16.80
2022-12-03T04:11:16.096Z,16.75
2022-12-03T04:13:44.456Z,16.67
2022-12-03T04:16:12.757Z,16.80
2022-12-03T04:18:46.885Z,16.10
2022-12-03T04:21:35.433Z,18.48
2022-12-03T04:24:03.979Z,16.70
2022-12-03T04:26:49.442Z,15.82
2022-12-03T04:29:17.713Z,15.70
2022-12-03T04:32:03.237Z,15.73
2022-12-03T04:34:48.351Z,15.90
2022-12-03T04:37:18.424Z,16.70
2022-12-03T04:39:46.774Z,17.38
2022-12-03T04:42:15.137Z,16.60
2022-12-03T04:44:43.072Z,17.42
2022-12-03T04:47:12.772Z,16.85
2022-12-03T04:49:42.002Z,16.85
2022-12-03T04:52:10.568Z,16.80
2022-12-03T04:54:40.480Z,15.93
2022-12-03T04:57:08.817Z,15.77
2022-12-03T04:59:37.552Z,16.58
2022-12-03T05:02:06.449Z,15.70
2022-12-03T05:04:34.950Z,15.10
2022-12-03T05:07:03.313Z,15.32
2022-12-03T05:09:31.485Z,15.93
2022-12-03T05:12:01.227Z,15.50
2022-12-03T05:14:29.521Z,15.68
2022-12-03T05:16:58.039Z,15.05
2022-12-03T05:19:46.529Z,15.70
2022-12-03T05:22:13.452Z,15.90
2022-12-03T05:24:41.788Z,16.00
2022-12-03T05:27:11.349Z,15.38
2022-12-03T05:29:39.761Z,15.48
2022-12-03T05:32:07.674Z,14.70
2022-12-03T05:34:36.070Z,14.13
2022-12-03T05:37:04.298Z,15.00
2022-12-03T05:39:32.647Z,14.10
2022-12-03T05:42:18.316Z,15.45
2022-12-03T05:44:48.137Z,15.60
2022-12-03T05:47:16.495Z,15.40
2022-12-03T05:49:45.160Z,15.82
2022-12-03T05:52:13.611Z,15.30
2022-12-03T05:54:41.901Z,15.90
2022-12-03T05:57:10.472Z,15.23
2022-12-03T05:59:39.013Z,15.88
2022-12-03T06:02:08.927Z,15.00
2022-12-03T06:04:37.332Z,15.75
2022-12-03T06:07:09.590Z,14.23
2022-12-03T06:09:40.830Z,15.32
2022-12-03T06:12:09.907Z,15.35
2022-12-03T06:14:38.386Z,15.32
2022-12-03T06:17:06.777Z,15.85
2022-12-03T06:19:36.791Z,16.80
2022-12-03T06:22:05.308Z,16.25
2022-12-03T06:24:33.502Z,15.98
2022-12-03T06:27:01.904Z,15.38
2022-12-03T06:29:30.663Z,16.63
2022-12-03T06:31:59.025Z,17.10
2022-12-03T06:34:27.533Z,17.15
2022-12-03T06:36:57.858Z,17.00
2022-12-03T06:39:26.277Z,15.43
2022-12-03T06:41:54.804Z,15.02
2022-12-03T06:44:23.223Z,15.15
2022-12-03T06:46:51.686Z,16.33
2022-12-03T06:49:20.145Z,15.30
2022-12-03T06:51:48.577Z,15.45
2022-12-03T06:54:18.786Z,16.27
2022-12-03T06:56:47.222Z,15.40
2022-12-03T06:59:15.803Z,15.68
2022-12-03T07:01:44.375Z,15.23
2022-12-03T07:04:12.804Z,14.07
2022-12-03T07:06:41.249Z,14.15
2022-12-03T07:09:10.103Z,13.57
2022-12-03T07:11:43.469Z,14.13
2022-12-03T07:14:14.808Z,13.93
2022-12-03T07:16:43.473Z,14.40
2022-12-03T07:19:12.359Z,13.57
2022-12-03T07:21:40.493Z,13.13
2022-12-03T07:24:10.230Z,13.68
2022-12-03T07:26:40.466Z,13.93
2022-12-03T07:29:08.535Z,13.15
2022-12-03T07:31:36.902Z,12.80
2022-12-03T07:34:05.567Z,15.18
2022-12-03T07:36:34.242Z,14.32
2022-12-03T07:39:07.776Z,15.00
2022-12-03T07:41:36.438Z,14.73
2022-12-03T07:44:14.321Z,14.70
2022-12-03T07:46:43.488Z,15.38
2022-12-03T07:49:12.180Z,15.75
2022-12-03T07:51:41.519Z,16.88
2022-12-03T07:54:10.243Z,20.83
2022-12-03T07:56:38.710Z,24.77
2022-12-03T07:59:11.170Z,33.67
2022-12-03T08:01:39.852Z,40.45
2022-12-03T08:04:08.408Z,39.33
2022-12-03T08:06:42.074Z,40.88
2022-12-03T08:09:15.758Z,37.72
2022-12-03T08:11:46.175Z,38.58
2022-12-03T08:14:16.779Z,37.58
2022-12-03T08:16:46.713Z,25.70
2022-12-03T08:19:17.742Z,32.13
2022-12-03T08:21:46.133Z,27.70
2022-12-03T08:24:15.542Z,26.83
2022-12-03T08:26:50.104Z,23.85
2022-12-03T08:29:20.628Z,25.50
2022-12-03T08:31:49.697Z,19.20
2022-12-03T08:34:19.469Z,20.73
2022-12-03T08:36:48.593Z,20.38
2022-12-03T08:39:28.117Z,21.27
2022-12-03T08:42:17.394Z,21.23
2022-12-03T08:44:47.421Z,20.40
2022-12-03T08:47:18.050Z,20.38
2022-12-03T08:49:49.001Z,20.23
2022-12-03T08:52:18.054Z,20.83
2022-12-03T08:54:53.500Z,19.60
2022-12-03T08:57:28.314Z,18.75
2022-12-03T09:00:00.365Z,22.42
2022-12-03T09:02:32.486Z,17.42
2022-12-03T09:05:01.240Z,19.27
2022-12-03T09:07:31.169Z,19.23
2022-12-03T09:09:59.979Z,18.65
2022-12-03T09:12:28.887Z,19.83
2022-12-03T09:14:59.330Z,19.50
2022-12-03T09:17:28.186Z,19.33
2022-12-03T09:19:57.313Z,19.02
2022-12-03T09:22:25.582Z,19.73
2022-12-03T09:24:57.122Z,19.80
2022-12-03T09:27:25.848Z,19.05
2022-12-03T09:29:55.360Z,19.17
2022-12-03T09:32:25.250Z,18.25
2022-12-03T09:34:54.270Z,18.02
2022-12-03T09:37:22.584Z,17.75
2022-12-03T09:39:51.206Z,18.15
2022-12-03T09:42:19.387Z,18.02
2022-12-03T09:44:48.604Z,17.00
2022-12-03T09:47:17.727Z,19.33
2022-12-03T09:49:47.522Z,17.77
2022-12-03T09:52:24.985Z,19.83
2022-12-03T09:54:54.621Z,21.10
2022-12-03T09:57:23.618Z,20.65
2022-12-03T09:59:52.523Z,19.35
2022-12-03T10:02:22.307Z,19.67
2022-12-03T10:04:52.916Z,17.52
2022-12-03T10:07:21.653Z,18.02
2022-12-03T10:09:50.106Z,16.77
2022-12-03T10:12:22.939Z,13.35
2022-12-03T10:14:51.765Z,16.38
2022-12-03T10:17:20.515Z,15.25
2022-12-03T10:19:49.073Z,15.90
2022-12-03T10:22:18.948Z,16.48
2022-12-03T10:24:47.034Z,13.10
2022-12-03T10:27:22.827Z,11.13
2022-12-03T10:29:57.325Z,7.68
2022-12-03T10:32:27.679Z,8.65
2022-12-03T10:35:08.905Z,10.88
2022-12-03T10:37:38.582Z,7.78
2022-12-03T10:40:09.451Z,7.57
2022-12-03T10:42:38.913Z,6.45
2022-12-03T10:45:15.235Z,7.15
2022-12-03T10:47:43.762Z,6.75
2022-12-03T10:50:17.255Z,7.65
2022-12-03T10:52:47.053Z,9.43
2022-12-03T10:55:16.029Z,9.40
2022-12-03T10:57:46.067Z,9.57
2022-12-03T11:00:17.071Z,9.57
2022-12-03T11:02:46.760Z,11.07
2022-12-03T11:05:17.420Z,10.07
2022-12-03T11:07:46.949Z,8.90
2022-12-03T11:10:16.316Z,9.00
2022-12-03T11:13:05.169Z,8.50
2022-12-03T11:15:43.300Z,8.25
2022-12-03T11:18:11.992Z,7.68
2022-12-03T11:21:06.683Z,8.40
2022-12-03T11:23:54.953Z,7.50
2022-12-03T11:26:38.226Z,8.18
2022-12-03T11:29:14.933Z,8.50
2022-12-03T11:31:44.538Z,8.07
2022-12-03T11:34:46.351Z,7.68
2022-12-03T11:37:24.616Z,7.20
2022-12-03T11:40:11.795Z,7.57
2022-12-03T11:42:41.169Z,8.38
2022-12-03T11:45:23.754Z,7.72
2022-12-03T11:48:02.917Z,7.35
2022-12-03T11:50:39.333Z,7.78
2022-12-03T11:53:14.227Z,7.80
2022-12-03T11:55:44.437Z,7.53
2022-12-03T11:58:16.710Z,7.88
2022-12-03T12:00:51.316Z,8.15
2022-12-03T12:03:34.267Z,7.43
2022-12-03T12:06:07.209Z,6.90
2022-12-03T12:08:36.696Z,7.50
2022-12-03T12:11:05.630Z,8.38
2022-12-03T12:13:57.585Z,7.57
2022-12-03T12:17:03.355Z,8.23
2022-12-03T12:19:33.501Z,7.65
2022-12-03T12:22:21.922Z,8.02
2022-12-03T12:24:52.636Z,7.13
2022-12-03T12:27:22.122Z,6.43
2022-12-03T12:29:55.022Z,6.90
2022-12-03T12:32:26.153Z,6.90
2022-12-03T12:34:56.356Z,6.85
2022-12-03T12:37:27.677Z,6.43
2022-12-03T12:39:57.805Z,6.28
2022-12-03T12:42:30.713Z,6.40
2022-12-03T12:45:00.637Z,6.57
2022-12-03T12:47:32.261Z,6.00
2022-12-03T12:50:00.681Z,6.32
2022-12-03T12:52:29.440Z,5.90
2022-12-03T12:55:03.055Z,6.20
2022-12-03T12:57:33.283Z,6.22
2022-12-03T13:00:01.291Z,6.55
2022-12-03T13:02:42.267Z,6.00
2022-12-03T13:05:11.927Z,5.95
2022-12-03T13:07:40.736Z,5.85
2022-12-03T13:10:26.998Z,6.20
2022-12-03T13:12:55.449Z,6.25
2022-12-03T13:15:37.433Z,6.22
2022-12-03T13:18:12.271Z,6.05
2022-12-03T13:20:40.685Z,6.70
2022-12-03T13:23:15.579Z,6.68
2022-12-03T13:26:00.617Z,6.32
2022-12-03T13:28:33.832Z,6.72
2022-12-03T13:31:14.218Z,8.07
2022-12-03T13:33:44.729Z,6.97
2022-12-03T13:36:15.702Z,7.28
2022-12-03T13:38:44.277Z,7.13
2022-12-03T13:41:35.260Z,7.32
2022-12-03T13:44:04.522Z,6.28
2022-12-03T13:46:36.126Z,7.40
2022-12-03T13:49:12.166Z,6.97
2022-12-03T13:51:42.907Z,7.28
2022-12-03T13:54:16.255Z,7.20
2022-12-03T13:56:44.484Z,8.20
2022-12-03T13:59:13.657Z,7.95
2022-12-03T14:01:41.815Z,7.45
2022-12-03T14:04:12.223Z,7.95
2022-12-03T14:06:40.743Z,7.25
2022-12-03T14:09:09.126Z,7.50
2022-12-03T14:11:54.861Z,7.72
2022-12-03T14:14:22.962Z,7.60
2022-12-03T14:16:55.369Z,7.25
2022-12-03T14:19:28.406Z,6.85
2022-12-03T14:21:57.079Z,7.40
2022-12-03T14:24:26.468Z,7.07
2022-12-03T14:26:54.558Z,7.55
2022-12-03T14:29:22.950Z,7.88
2022-12-03T14:31:51.522Z,8.07
2022-12-03T14:34:23.094Z,8.32
2022-12-03T14:36:52.890Z,7.53
2022-12-03T14:39:21.494Z,7.10
2022-12-03T14:42:06.982Z,7.32
2022-12-03T14:44:35.950Z,7.75
2022-12-03T14:47:04.994Z,8.90
2022-12-03T14:49:33.357Z,8.55
2022-12-03T14:52:03.691Z,8.13
2022-12-03T14:54:32.077Z,8.30
2022-12-03T14:57:00.454Z,7.57
2022-12-03T14:59:29.127Z,7.78
2022-12-03T15:01:57.721Z,7.97
2022-12-03T15:04:25.829Z,8.40
2022-12-03T15:06:54.441Z,8.07
2022-12-03T15:09:24.683Z,8.23
2022-12-03T15:11:53.070Z,7.78
2022-12-03T15:14:21.429Z,10.93
2022-12-03T15:16:49.901Z,8.80
2022-12-03T15:19:18.435Z,8.25
2022-12-03T15:21:48.026Z,8.23
2022-12-03T15:24:15.976Z,8.13
2022-12-03T15:26:45.762Z,8.00
2022-12-03T15:29:13.772Z,9.20
2022-12-03T15:31:41.847Z,9.77
2022-12-03T15:34:10.283Z,10.23
2022-12-03T15:36:38.337Z,9.93
2022-12-03T15:39:06.793Z,9.43
2022-12-03T15:41:35.109Z,9.38
2022-12-03T15:44:04.921Z,9.70
2022-12-03T15:46:33.359Z,8.73
2022-12-03T15:49:02.120Z,8.93
2022-12-03T15:51:31.418Z,9.10
2022-12-03T15:53:59.778Z,9.02
2022-12-03T15:56:28.274Z,9.23
2022-12-03T15:58:57.071Z,10.52
2022-12-03T16:01:26.539Z,9.32
2022-12-03T16:03:55.048Z,9.20
2022-12-03T16:06:23.001Z,8.55
2022-12-03T16:08:51.720Z,8.73
2022-12-03T16:11:20.266Z,9.02
2022-12-03T16:13:48.699Z,9.23
2022-12-03T16:16:17.037Z,8.52
2022-12-03T16:18:46.880Z,9.65
2022-12-03T16:21:15.349Z,8.75
2022-12-03T16:23:43.366Z,9.10
2022-12-03T16:26:11.786Z,10.45
2022-12-03T16:28:40.016Z,10.27
2022-12-03T16:31:08.041Z,10.13
2022-12-03T16:33:36.423Z,9.20
2022-12-03T16:36:06.491Z,8.15
2022-12-03T16:38:34.749Z,8.38
2022-12-03T16:41:03.350Z,8.63
2022-12-03T16:43:34.063Z,9.68
2022-12-03T16:46:20.698Z,9.00
2022-12-03T16:51:21.474Z,9.32
2022-12-03T16:53:49.881Z,9.57
2022-12-03T16:56:18.202Z,8.98
2022-12-03T16:58:46.463Z,11.10
2022-12-03T17:01:15.864Z,10.73
2022-12-03T17:03:44.680Z,13.40
2022-12-03T17:06:13.027Z,12.70
2022-12-03T17:08:48.727Z,12.95
2022-12-03T17:11:17.880Z,11.52
2022-12-03T17:13:46.134Z,14.07
2022-12-03T17:16:14.551Z,12.45
2022-12-03T17:18:42.804Z,17.25
2022-12-03T17:21:10.889Z,12.65
2022-12-03T17:23:39.224Z,12.45
2022-12-03T17:26:08.953Z,12.15
2022-12-03T17:28:37.344Z,12.43
2022-12-03T17:31:05.606Z,13.13
2022-12-03T17:33:34.096Z,13.07
2022-12-03T17:36:02.384Z,13.70
2022-12-03T17:38:35.645Z,15.27
2022-12-03T17:41:08.594Z,19.33
2022-12-03T17:43:37.449Z,17.48
2022-12-03T17:46:06.829Z,14.73
2022-12-03T17:48:35.866Z,15.13
2022-12-03T17:51:04.210Z,13.68
2022-12-03T17:53:32.449Z,17.10
2022-12-03T17:56:00.807Z,17.33
2022-12-03T17:58:30.665Z,16.42
2022-12-03T18:01:02.807Z,17.63
2022-12-03T18:03:31.695Z,18.70
2022-12-03T18:06:00.015Z,20.67
2022-12-03T18:08:29.410Z,21.65
2022-12-03T18:10:57.514Z,20.48
2022-12-03T18:13:25.769Z,20.13
2022-12-03T18:15:55.978Z,18.80
2022-12-03T18:18:24.357Z,19.15
2022-12-03T18:20:53.380Z,19.23
2022-12-03T18:23:21.772Z,19.27
2022-12-03T18:25:50.226Z,21.02
2022-12-03T18:28:18.651Z,20.70
2022-12-03T18:30:52.171Z,20.85
2022-12-03T18:33:23.442Z,21.15
2022-12-03T18:35:53.309Z,21.17
2022-12-03T18:38:21.927Z,20.73
2022-12-03T18:40:51.578Z,23.92
2022-12-03T18:43:22.470Z,27.33
2022-12-03T18:45:50.539Z,36.65
2022-12-03T18:48:19.673Z,42.67
2022-12-03T18:50:49.855Z,44.70
2022-12-03T18:53:19.515Z,44.13
2022-12-03T18:55:48.226Z,46.45
2022-12-03T18:58:19.181Z,49.72
2022-12-03T19:00:47.293Z,51.85
2022-12-03T19:03:15.869Z,50.63
2022-12-03T19:05:44.340Z,49.97
2022-12-03T19:08:15.561Z,49.22
2022-12-03T19:10:44.300Z,47.58
2022-12-03T19:13:12.767Z,46.83
2022-12-03T19:15:41.218Z,48.17
2022-12-03T19:18:09.471Z,49.70
2022-12-03T19:20:40.870Z,48.83
2022-12-03T19:23:09.289Z,37.22
2022-12-03T19:25:38.661Z,36.40
2022-12-03T19:28:09.828Z,29.95
2022-12-03T19:30:38.151Z,22.58
2022-12-03T19:33:06.480Z,20.25
2022-12-03T19:35:40.099Z,19.33
2022-12-03T19:38:08.779Z,19.50
2022-12-03T19:40:38.664Z,20.08
2022-12-03T19:43:07.006Z,19.45
2022-12-03T19:45:36.921Z,20.23
2022-12-03T19:48:05.088Z,19.65
2022-12-03T19:50:33.470Z,18.17
2022-12-03T19:53:01.764Z,19.30
2022-12-03T19:55:30.205Z,23.75
2022-12-03T19:58:00.752Z,33.60
2022-12-03T20:00:29.205Z,35.42
2022-12-03T20:02:57.256Z,36.65
2022-12-03T20:05:30.374Z,38.22
2022-12-03T20:08:02.058Z,38.85
2022-12-03T20:10:30.494Z,38.55
2022-12-03T20:12:58.772Z,37.13
2022-12-03T20:15:28.680Z,26.45
2022-12-03T20:17:57.078Z,27.83
2022-12-03T20:20:25.547Z,26.08
2022-12-03T20:22:53.505Z,26.65
2022-12-03T20:25:21.947Z,25.52
2022-12-03T20:27:50.345Z,24.65
2022-12-03T20:30:18.914Z,27.08
2022-12-03T20:32:48.419Z,25.27
2022-12-03T20:35:16.963Z,24.80
2022-12-03T20:37:45.327Z,25.40
2022-12-03T20:40:13.894Z,23.17
2022-12-03T20:42:42.222Z,26.92
2022-12-03T20:45:12.024Z,31.55
2022-12-03T20:47:40.110Z,36.92
2022-12-03T20:50:10.864Z,35.65
2022-12-03T20:52:38.863Z,37.40
2022-12-03T20:55:07.168Z,31.27
2022-12-03T20:57:35.289Z,31.25
2022-12-03T21:00:03.554Z,30.50
2022-12-03T21:02:32.760Z,27.98
2022-12-03T21:05:01.308Z,29.88
2022-12-03T21:07:30.997Z,31.02
2022-12-03T21:09:59.466Z,28.17
2022-12-03T21:12:28.227Z,31.05
2022-12-03T21:14:56.552Z,33.42
2022-12-03T21:17:24.635Z,32.17
2022-12-03T21:19:54.159Z,35.22
2022-12-03T21:22:22.898Z,29.92
2022-12-03T21:24:52.625Z,28.20
2022-12-03T21:27:21.949Z,25.98
2022-12-03T21:29:50.233Z,25.45
2022-12-03T21:32:18.282Z,23.08
2022-12-03T21:34:46.530Z,27.52
2022-12-03T21:37:14.770Z,25.60
2022-12-03T21:39:43.117Z,24.38
2022-12-03T21:42:33.776Z,23.60
2022-12-03T21:45:01.566Z,23.17
2022-12-03T21:47:35.146Z,22.92
2022-12-03T21:50:06.282Z,22.80
2022-12-03T21:52:34.775Z,21.73
2022-12-03T21:55:03.257Z,21.05
2022-12-03T21:57:33.160Z,19.80
2022-12-03T22:00:01.431Z,20.02
2022-12-03T22:02:29.812Z,20.40
2022-12-03T22:04:58.239Z,21.40
2022-12-03T22:07:26.697Z,21.20
2022-12-03T22:09:55.095Z,20.55
2022-12-03T22:12:23.535Z,20.67
2022-12-03T22:14:53.686Z,19.90
2022-12-03T22:17:21.952Z,19.33
2022-12-03T22:19:50.246Z,20.27
2022-12-03T22:22:18.857Z,20.00
2022-12-03T22:24:47.451Z,18.48
2022-12-03T22:27:15.874Z,20.02
2022-12-03T22:29:44.312Z,20.83
2022-12-03T22:32:13.809Z,19.60
2022-12-03T22:34:42.644Z,19.15
2022-12-03T22:37:11.108Z,20.83
2022-12-03T22:39:39.368Z,19.67
2022-12-03T22:42:07.760Z,20.27
2022-12-03T22:44:36.143Z,19.67
2022-12-03T22:47:07.141Z,19.15
2022-12-03T22:49:36.927Z,19.73
2022-12-03T22:52:05.414Z,18.45
2022-12-03T22:54:33.718Z,18.05
2022-12-03T22:57:02.055Z,19.08
2022-12-03T22:59:30.161Z,18.90
2022-12-03T23:01:58.454Z,18.40
2022-12-03T23:04:26.808Z,17.13
2022-12-03T23:06:56.698Z,17.48
2022-12-03T23:09:24.707Z,18.02
2022-12-03T23:11:52.666Z,17.15
2022-12-03T23:14:20.590Z,16.35
2022-12-03T23:16:51.657Z,13.98
2022-12-03T23:19:21.133Z,15.95
2022-12-03T23:21:49.438Z,16.65
2022-12-03T23:24:19.270Z,16.05
2022-12-03T23:26:47.716Z,15.43
2022-12-03T23:29:16.044Z,15.63
2022-12-03T23:31:44.826Z,15.75
2022-12-03T23:34:13.152Z,15.07
2022-12-03T23:36:41.557Z,14.18
2022-12-03T23:39:10.448Z,15.02
2022-12-03T23:41:40.170Z,14.60
2022-12-03T23:44:08.145Z,14.70
2022-12-03T23:46:36.357Z,14.68
2022-12-03T23:49:04.875Z,15.02
2022-12-03T23:51:33.163Z,15.70
2022-12-03T23:54:01.587Z,15.70
2022-12-03T23:56:31.191Z,18.88
2022-12-03T23:59:01.522Z,19.13
